createdAt,value
2023-03-05T00:02:07.066Z,12.07
2023-03-05T00:04:33.748Z,10.63
2023-03-05T00:07:00.692Z,13.93
2023-03-05T00:09:27.596Z,11.00
2023-03-05T00:11:54.309Z,12.75
2023-03-05T00:14:20.935Z,12.20
2023-03-05T00:16:47.909Z,13.57
2023-03-05T00:19:14.739Z,11.27
2023-03-05T00:21:42.342Z,12.80
2023-03-05T00:24:13.236Z,12.05
2023-03-05T00:26:40.283Z,12.07
2023-03-05T00:29:08.090Z,12.82
2023-03-05T00:31:35.984Z,11.93
2023-03-05T00:34:06.231Z,13.07
2023-03-05T00:36:33.798Z,13.13
2023-03-05T00:39:00.919Z,12.23
2023-03-05T00:41:27.920Z,12.02
2023-03-05T00:43:54.647Z,12.10
2023-03-05T00:46:21.875Z,12.25
2023-03-05T00:48:48.951Z,13.82
2023-03-05T00:51:15.934Z,13.25
2023-03-05T00:53:42.536Z,12.93
2023-03-05T00:56:09.406Z,12.45
2023-03-05T00:58:37.077Z,12.10
2023-03-05T01:01:04.838Z,11.82
2023-03-05T01:03:33.378Z,11.82
2023-03-05T01:06:01.304Z,12.07
2023-03-05T01:08:28.270Z,11.27
2023-03-05T01:10:55.084Z,10.88
2023-03-05T01:13:21.998Z,9.98
2023-03-05T01:15:50.933Z,9.85
2023-03-05T01:18:19.368Z,8.85
2023-03-05T01:20:46.812Z,8.70
2023-03-05T01:23:13.534Z,9.40
2023-03-05T01:25:40.231Z,7.78
2023-03-05T01:28:07.808Z,7.95
2023-03-05T01:30:35.198Z,7.90
2023-03-05T01:33:02.324Z,7.47
2023-03-05T01:35:29.245Z,8.05
2023-03-05T01:37:56.243Z,7.60
2023-03-05T01:40:28.128Z,6.63
2023-03-05T01:43:08.665Z,6.22
2023-03-05T01:45:35.335Z,6.63
2023-03-05T01:48:02.224Z,7.25
2023-03-05T01:50:29.186Z,6.07
2023-03-05T01:53:01.654Z,6.35
2023-03-05T01:55:30.967Z,7.00
2023-03-05T01:58:05.022Z,6.00
2023-03-05T02:00:37.645Z,6.13
2023-03-05T02:03:07.060Z,5.30
2023-03-05T02:05:36.197Z,4.35
2023-03-05T02:08:07.124Z,6.05
2023-03-05T02:10:37.549Z,5.15
2023-03-05T02:13:14.217Z,4.82
2023-03-05T02:15:41.957Z,5.30
2023-03-05T02:18:10.015Z,5.03
2023-03-05T02:20:52.582Z,6.22
2023-03-05T02:23:21.140Z,5.40
2023-03-05T02:25:48.005Z,5.13
2023-03-05T02:28:30.462Z,6.30
2023-03-05T02:30:57.487Z,6.85
2023-03-05T02:33:24.288Z,6.25
2023-03-05T02:35:51.562Z,7.15
2023-03-05T02:38:21.125Z,7.60
2023-03-05T02:40:48.265Z,8.48
2023-03-05T02:43:16.965Z,8.73
2023-03-05T02:45:43.884Z,8.55
2023-03-05T02:48:10.594Z,7.63
2023-03-05T02:50:39.757Z,8.52
2023-03-05T02:53:06.806Z,9.55
2023-03-05T02:55:33.560Z,7.90
2023-03-05T02:58:00.388Z,7.95
2023-03-05T03:00:27.839Z,8.13
2023-03-05T03:02:55.222Z,7.30
2023-03-05T03:05:22.045Z,8.50
2023-03-05T03:07:49.214Z,6.90
2023-03-05T03:10:15.974Z,7.43
2023-03-05T03:12:44.430Z,7.43
2023-03-05T03:15:13.380Z,7.72
2023-03-05T03:17:40.021Z,8.77
2023-03-05T03:20:09.125Z,8.57
2023-03-05T03:22:35.956Z,9.00
2023-03-05T03:25:03.590Z,8.15
2023-03-05T03:27:30.331Z,7.50
2023-03-05T03:29:56.979Z,7.40
2023-03-05T03:32:23.613Z,7.22
2023-03-05T03:34:50.354Z,7.00
2023-03-05T03:37:16.953Z,7.25
2023-03-05T03:39:43.770Z,7.38
2023-03-05T03:42:10.472Z,7.18
2023-03-05T03:44:37.161Z,6.03
2023-03-05T03:47:03.906Z,6.97
2023-03-05T03:49:30.576Z,6.68
2023-03-05T03:51:58.271Z,7.05
2023-03-05T03:54:25.216Z,6.18
2023-03-05T03:56:52.639Z,5.32
2023-03-05T03:59:19.464Z,5.97
2023-03-05T04:01:46.234Z,4.90
2023-03-05T04:04:13.757Z,5.93
2023-03-05T04:06:40.741Z,5.50
2023-03-05T04:09:08.351Z,6.28
2023-03-05T04:11:36.281Z,6.70
2023-03-05T04:14:03.902Z,6.82
2023-03-05T04:16:30.648Z,6.43
2023-03-05T04:18:57.568Z,6.85
2023-03-05T04:21:24.239Z,5.57
2023-03-05T04:23:50.944Z,6.20
2023-03-05T04:26:17.556Z,6.47
2023-03-05T04:28:46.725Z,5.35
2023-03-05T04:31:13.312Z,5.18
2023-03-05T04:33:40.067Z,4.60
2023-03-05T04:36:07.227Z,5.10
2023-03-05T04:38:33.882Z,4.45
2023-03-05T04:41:00.621Z,4.53
2023-03-05T04:43:27.412Z,4.65
2023-03-05T04:45:55.218Z,5.30
2023-03-05T04:48:21.893Z,4.68
2023-03-05T04:50:48.482Z,4.22
2023-03-05T04:53:15.146Z,4.35
2023-03-05T04:55:42.882Z,3.72
2023-03-05T04:58:09.545Z,3.13
2023-03-05T05:00:36.200Z,3.05
2023-03-05T05:03:02.948Z,4.00
2023-03-05T05:05:29.708Z,4.80
2023-03-05T05:07:58.005Z,4.72
2023-03-05T05:10:26.313Z,5.05
2023-03-05T05:12:53.490Z,5.05
2023-03-05T05:15:20.773Z,4.55
2023-03-05T05:17:47.980Z,5.18
2023-03-05T05:20:16.052Z,4.93
2023-03-05T05:22:43.850Z,5.53
2023-03-05T05:25:11.200Z,5.65
2023-03-05T05:27:39.535Z,5.60
2023-03-05T05:30:07.665Z,6.05
2023-03-05T05:32:34.859Z,6.15
2023-03-05T05:35:01.640Z,5.05
2023-03-05T05:37:29.781Z,5.80
2023-03-05T05:39:56.644Z,5.20
2023-03-05T05:42:25.124Z,5.28
2023-03-05T05:44:52.011Z,4.32
2023-03-05T05:47:19.073Z,4.68
2023-03-05T05:49:45.715Z,5.18
2023-03-05T05:52:13.442Z,5.47
2023-03-05T05:54:40.223Z,5.05
2023-03-05T05:57:07.492Z,5.03
2023-03-05T05:59:34.449Z,4.47
2023-03-05T06:02:01.248Z,4.38
2023-03-05T06:04:27.854Z,4.30
2023-03-05T06:06:54.628Z,4.35
2023-03-05T06:09:21.213Z,4.72
2023-03-05T06:11:47.914Z,4.18
2023-03-05T06:14:14.564Z,4.22
2023-03-05T06:16:41.243Z,5.00
2023-03-05T06:19:11.805Z,4.78
2023-03-05T06:21:39.310Z,4.85
2023-03-05T06:24:06.935Z,4.43
2023-03-05T06:26:33.754Z,4.43
2023-03-05T06:29:00.550Z,3.67
2023-03-05T06:31:28.955Z,3.13
2023-03-05T06:33:58.157Z,3.45
2023-03-05T06:36:25.317Z,3.10
2023-03-05T06:38:53.386Z,3.13
2023-03-05T06:41:29.762Z,2.58
2023-03-05T06:43:58.788Z,3.40
2023-03-05T06:46:31.565Z,2.88
2023-03-05T06:49:00.431Z,3.65
2023-03-05T06:51:28.820Z,3.30
2023-03-05T06:53:59.144Z,3.08
2023-03-05T06:56:25.982Z,3.70
2023-03-05T06:58:53.220Z,4.47
2023-03-05T07:01:21.057Z,3.97
2023-03-05T07:03:52.645Z,3.78
2023-03-05T07:06:20.293Z,3.95
2023-03-05T07:08:47.652Z,4.72
2023-03-05T07:11:20.375Z,6.18
2023-03-05T07:13:50.670Z,7.93
2023-03-05T07:16:23.857Z,10.10
2023-03-05T07:18:51.412Z,10.27
2023-03-05T07:21:21.014Z,10.82
2023-03-05T07:23:48.198Z,11.73
2023-03-05T07:26:16.036Z,12.02
2023-03-05T07:28:43.367Z,10.88
2023-03-05T07:31:15.653Z,11.55
2023-03-05T07:33:42.330Z,11.20
2023-03-05T07:36:10.223Z,11.05
2023-03-05T07:38:37.563Z,12.57
2023-03-05T07:41:07.033Z,12.00
2023-03-05T07:43:33.847Z,11.68
2023-03-05T07:46:07.594Z,11.50
2023-03-05T07:48:34.653Z,11.18
2023-03-05T07:51:06.817Z,12.25
2023-03-05T07:53:33.762Z,12.73
2023-03-05T07:56:00.366Z,12.43
2023-03-05T07:58:27.307Z,10.48
2023-03-05T08:00:54.028Z,11.23
2023-03-05T08:03:20.671Z,12.27
2023-03-05T08:05:47.409Z,11.30
2023-03-05T08:08:14.305Z,12.77
2023-03-05T08:10:40.875Z,12.32
2023-03-05T08:13:08.133Z,11.23
2023-03-05T08:15:34.858Z,11.20
2023-03-05T08:18:01.576Z,11.45
2023-03-05T08:20:28.311Z,11.93
2023-03-05T08:22:55.119Z,11.55
2023-03-05T08:25:21.729Z,10.82
2023-03-05T08:27:49.124Z,11.25
2023-03-05T08:30:22.504Z,11.27
2023-03-05T08:32:49.928Z,11.60
2023-03-05T08:35:16.730Z,10.90
2023-03-05T08:37:43.744Z,11.35
2023-03-05T08:40:10.995Z,10.80
2023-03-05T08:42:37.657Z,11.02
2023-03-05T08:45:04.549Z,11.07
2023-03-05T08:47:31.461Z,12.05
2023-03-05T08:49:58.473Z,10.77
2023-03-05T08:52:27.326Z,10.32
2023-03-05T08:54:54.213Z,10.85
2023-03-05T08:57:21.114Z,9.32
2023-03-05T08:59:48.243Z,9.57
2023-03-05T09:02:15.069Z,8.63
2023-03-05T09:04:41.728Z,9.45
2023-03-05T09:07:09.025Z,9.57
2023-03-05T09:09:36.450Z,9.57
2023-03-05T09:12:03.416Z,9.00
2023-03-05T09:14:30.747Z,9.98
2023-03-05T09:16:58.114Z,8.88
2023-03-05T09:19:27.559Z,8.90
2023-03-05T09:21:56.907Z,9.45
2023-03-05T09:24:23.738Z,9.48
2023-03-05T09:26:50.494Z,8.68
2023-03-05T09:29:17.110Z,8.10
2023-03-05T09:31:44.139Z,7.35
2023-03-05T09:34:11.710Z,7.82
2023-03-05T09:36:38.562Z,6.25
2023-03-05T09:39:07.001Z,6.88
2023-03-05T09:41:37.823Z,6.60
2023-03-05T09:44:30.256Z,7.00
2023-03-05T09:47:10.040Z,4.97
2023-03-05T09:49:59.932Z,5.65
2023-03-05T09:52:50.419Z,4.47
2023-03-05T09:55:27.566Z,4.70
2023-03-05T09:57:58.538Z,4.95
2023-03-05T10:00:34.913Z,4.18
2023-03-05T10:03:07.096Z,5.13
2023-03-05T10:05:45.792Z,6.32
2023-03-05T10:08:14.401Z,5.28
2023-03-05T10:10:45.999Z,5.93
2023-03-05T10:13:22.947Z,5.85
2023-03-05T10:16:00.331Z,6.68
2023-03-05T10:18:40.495Z,7.10
2023-03-05T10:22:03.173Z,5.72
2023-03-05T10:25:08.182Z,5.10
2023-03-05T10:27:54.071Z,5.97
2023-03-05T10:30:32.917Z,5.00
2023-03-05T10:33:22.698Z,4.72
2023-03-05T10:36:08.258Z,4.13
2023-03-05T10:38:50.207Z,4.55
2023-03-05T10:41:21.842Z,5.05
2023-03-05T10:43:48.415Z,5.60
2023-03-05T10:46:17.457Z,4.75
2023-03-05T10:48:46.888Z,5.43
2023-03-05T10:51:37.289Z,5.32
2023-03-05T10:54:33.782Z,6.43
2023-03-05T11:00:21.005Z,6.05
2023-03-05T11:03:02.658Z,7.13
2023-03-05T11:06:00.169Z,6.40
2023-03-05T11:08:29.627Z,7.13
2023-03-05T11:11:04.128Z,7.90
2023-03-05T11:13:31.196Z,6.63
2023-03-05T11:16:03.993Z,7.20
2023-03-05T11:18:34.521Z,7.15
2023-03-05T11:21:18.555Z,7.30
2023-03-05T11:24:04.815Z,8.32
2023-03-05T11:26:31.783Z,7.85
2023-03-05T11:29:00.926Z,9.10
2023-03-05T11:31:36.474Z,8.00
2023-03-05T11:36:43.366Z,8.40
2023-03-05T11:39:11.804Z,7.82
2023-03-05T11:41:53.698Z,7.97
2023-03-05T11:44:29.463Z,8.27
2023-03-05T11:47:21.631Z,9.23
2023-03-05T11:49:54.297Z,8.48
2023-03-05T11:52:26.673Z,8.35
2023-03-05T11:55:04.185Z,8.25
2023-03-05T11:58:22.641Z,8.90
2023-03-05T12:00:49.845Z,8.15
2023-03-05T12:03:20.568Z,8.52
2023-03-05T12:06:13.283Z,7.32
2023-03-05T12:08:45.155Z,8.55
2023-03-05T12:11:19.206Z,8.15
2023-03-05T12:13:52.433Z,8.73
2023-03-05T12:16:30.965Z,7.57
2023-03-05T12:19:18.385Z,7.97
2023-03-05T12:21:50.184Z,7.13
2023-03-05T12:24:28.148Z,7.45
2023-03-05T12:27:04.004Z,8.32
2023-03-05T12:31:58.235Z,7.93
2023-03-05T12:34:40.580Z,9.10
2023-03-05T12:37:34.647Z,9.13
2023-03-05T12:40:12.702Z,8.80
2023-03-05T12:42:39.233Z,10.60
2023-03-05T12:45:12.399Z,10.65
2023-03-05T12:47:44.520Z,10.57
2023-03-05T12:50:29.380Z,11.07
2023-03-05T12:53:04.343Z,9.80
2023-03-05T12:56:01.149Z,11.02
2023-03-05T12:58:45.006Z,11.48
2023-03-05T13:01:11.799Z,11.63
2023-03-05T13:03:58.583Z,11.95
2023-03-05T13:06:34.170Z,12.57
2023-03-05T13:11:31.733Z,12.65
2023-03-05T13:14:00.789Z,13.88
2023-03-05T13:16:29.810Z,14.90
2023-03-05T13:19:01.370Z,16.23
2023-03-05T13:21:30.883Z,14.02
2023-03-05T13:24:00.372Z,14.45
2023-03-05T13:26:38.665Z,17.08
2023-03-05T13:29:20.375Z,15.48
2023-03-05T13:31:58.899Z,16.25
2023-03-05T13:34:46.237Z,16.80
2023-03-05T13:37:19.500Z,16.77
2023-03-05T13:40:07.229Z,18.48
2023-03-05T13:42:36.149Z,18.95
2023-03-05T13:45:20.266Z,20.23
2023-03-05T13:48:03.060Z,18.65
2023-03-05T13:50:31.421Z,18.58
2023-03-05T13:53:20.784Z,19.48
2023-03-05T13:55:52.971Z,19.20
2023-03-05T13:58:58.315Z,19.25
2023-03-05T14:01:32.571Z,17.35
2023-03-05T14:04:21.233Z,18.42
2023-03-05T14:07:06.505Z,18.95
2023-03-05T14:09:39.084Z,19.63
2023-03-05T14:12:21.171Z,19.20
2023-03-05T14:14:48.715Z,17.48
2023-03-05T14:17:32.626Z,19.02
2023-03-05T14:20:14.807Z,17.73
2023-03-05T14:22:46.374Z,19.60
2023-03-05T14:25:51.827Z,18.90
2023-03-05T14:28:18.436Z,18.88
2023-03-05T14:30:47.538Z,19.48
2023-03-05T14:33:15.357Z,18.80
2023-03-05T14:35:48.833Z,19.27
2023-03-05T14:38:28.387Z,19.85
2023-03-05T14:40:55.105Z,19.33
2023-03-05T14:43:21.702Z,18.48
2023-03-05T14:45:48.509Z,17.77
2023-03-05T14:48:18.760Z,18.70
2023-03-05T14:50:51.695Z,18.73
2023-03-05T14:53:25.717Z,18.55
2023-03-05T14:55:57.013Z,16.80
2023-03-05T14:58:27.865Z,16.45
2023-03-05T15:00:55.472Z,17.95
2023-03-05T15:03:23.082Z,15.38
2023-03-05T15:05:52.361Z,16.25
2023-03-05T15:08:29.376Z,13.65
2023-03-05T15:10:56.800Z,14.88
2023-03-05T15:13:23.405Z,14.38
2023-03-05T15:15:52.136Z,13.75
2023-03-05T15:18:21.689Z,13.82
2023-03-05T15:20:51.958Z,13.95
2023-03-05T15:23:19.686Z,13.35
2023-03-05T15:25:46.361Z,13.68
2023-03-05T15:28:13.169Z,14.80
2023-03-05T15:30:43.431Z,13.60
2023-03-05T15:33:13.412Z,13.88
2023-03-05T15:35:40.796Z,12.55
2023-03-05T15:38:08.184Z,13.50
2023-03-05T15:40:34.957Z,12.93
2023-03-05T15:43:01.614Z,13.70
2023-03-05T15:45:31.385Z,11.98
2023-03-05T15:47:58.634Z,14.82
2023-03-05T15:50:25.492Z,13.88
2023-03-05T15:52:52.364Z,14.48
2023-03-05T15:55:20.046Z,14.18
2023-03-05T15:57:49.197Z,15.50
2023-03-05T16:00:18.768Z,14.73
2023-03-05T16:02:45.407Z,14.23
2023-03-05T16:05:12.239Z,14.27
2023-03-05T16:07:42.208Z,13.80
2023-03-05T16:10:17.362Z,14.20
2023-03-05T16:12:46.675Z,13.60
2023-03-05T16:15:16.921Z,13.25
2023-03-05T16:17:45.576Z,12.68
2023-03-05T16:20:13.065Z,13.43
2023-03-05T16:22:39.936Z,13.60
2023-03-05T16:25:06.854Z,13.05
2023-03-05T16:27:33.770Z,13.95
2023-03-05T16:30:00.485Z,11.98
2023-03-05T16:32:27.306Z,13.60
2023-03-05T16:34:53.915Z,13.25
2023-03-05T16:37:22.892Z,12.35
2023-03-05T16:39:50.177Z,11.82
2023-03-05T16:42:17.415Z,11.52
2023-03-05T16:44:45.319Z,12.32
2023-03-05T16:47:12.816Z,11.63
2023-03-05T16:49:39.911Z,11.48
2023-03-05T16:52:18.247Z,12.00
2023-03-05T16:54:46.531Z,12.13
2023-03-05T16:57:13.588Z,12.68
2023-03-05T16:59:40.319Z,12.98
2023-03-05T17:02:07.116Z,11.10
2023-03-05T17:04:34.146Z,11.00
2023-03-05T17:07:00.903Z,10.85
2023-03-05T17:09:27.758Z,10.25
2023-03-05T17:11:55.015Z,10.55
2023-03-05T17:14:21.874Z,10.35
2023-03-05T17:16:48.726Z,10.18
2023-03-05T17:19:15.959Z,11.07
2023-03-05T17:21:42.905Z,11.35
2023-03-05T17:24:10.331Z,9.43
2023-03-05T17:26:37.735Z,10.43
2023-03-05T17:29:05.360Z,10.55
2023-03-05T17:31:32.473Z,9.75
2023-03-05T17:33:59.185Z,17.70
2023-03-05T17:36:26.303Z,15.43
2023-03-05T17:38:54.880Z,11.55
2023-03-05T17:41:22.066Z,11.15
2023-03-05T17:43:49.422Z,11.65
2023-03-05T17:46:16.855Z,10.48
2023-03-05T17:48:44.275Z,10.77
2023-03-05T17:51:13.936Z,9.88
2023-03-05T17:53:41.005Z,9.70
2023-03-05T17:56:12.153Z,8.80
2023-03-05T17:58:40.126Z,9.02
2023-03-05T18:01:07.839Z,10.15
2023-03-05T18:03:36.246Z,10.13
2023-03-05T18:06:03.826Z,11.98
2023-03-05T18:08:31.021Z,10.52
2023-03-05T18:10:57.672Z,9.73
2023-03-05T18:13:24.447Z,9.52
2023-03-05T18:15:51.086Z,9.85
2023-03-05T18:18:18.717Z,9.63
2023-03-05T18:20:45.898Z,9.43
2023-03-05T18:23:13.176Z,9.77
2023-03-05T18:25:40.190Z,9.45
2023-03-05T18:28:10.414Z,9.13
2023-03-05T18:30:38.932Z,9.38
2023-03-05T18:33:05.602Z,10.32
2023-03-05T18:35:33.472Z,9.00
2023-03-05T18:38:00.899Z,9.20
2023-03-05T18:40:29.955Z,10.02
2023-03-05T18:42:59.863Z,10.98
2023-03-05T18:45:26.738Z,9.52
2023-03-05T18:47:54.248Z,9.43
2023-03-05T18:50:22.547Z,10.07
2023-03-05T18:52:49.769Z,10.25
2023-03-05T18:55:28.674Z,10.52
2023-03-05T18:57:55.620Z,10.32
2023-03-05T19:00:27.068Z,10.63
2023-03-05T19:02:54.882Z,10.10
2023-03-05T19:05:22.123Z,10.90
2023-03-05T19:07:49.287Z,11.30
2023-03-05T19:10:17.674Z,11.90
2023-03-05T19:12:56.966Z,11.27
2023-03-05T19:15:24.053Z,10.73
2023-03-05T19:17:51.640Z,10.18
2023-03-05T19:20:18.852Z,10.27
2023-03-05T19:22:45.494Z,9.85
2023-03-05T19:25:12.586Z,10.15
2023-03-05T19:27:39.381Z,8.73
2023-03-05T19:30:07.051Z,9.70
2023-03-05T19:32:34.231Z,9.35
2023-03-05T19:35:01.527Z,8.60
2023-03-05T19:37:28.478Z,9.85
2023-03-05T19:39:56.752Z,9.25
2023-03-05T19:42:23.490Z,9.50
2023-03-05T19:44:50.333Z,7.60
2023-03-05T19:47:16.898Z,8.80
2023-03-05T19:49:43.618Z,9.57
2023-03-05T19:52:10.222Z,9.05
2023-03-05T19:54:36.914Z,9.15
2023-03-05T19:57:03.803Z,9.27
2023-03-05T19:59:30.593Z,9.35
2023-03-05T20:01:57.705Z,10.68
2023-03-05T20:04:25.172Z,9.10
2023-03-05T20:06:52.076Z,10.38
2023-03-05T20:09:19.226Z,9.35
2023-03-05T20:11:47.134Z,10.25
2023-03-05T20:14:14.622Z,9.85
2023-03-05T20:16:43.341Z,10.00
2023-03-05T20:19:16.350Z,9.95
2023-03-05T20:21:44.794Z,10.32
2023-03-05T20:24:14.478Z,10.35
2023-03-05T20:26:42.990Z,10.10
2023-03-05T20:29:10.415Z,9.65
2023-03-05T20:31:37.788Z,10.68
2023-03-05T20:34:09.802Z,11.48
2023-03-05T20:36:36.887Z,11.57
2023-03-05T20:39:05.161Z,13.65
2023-03-05T20:41:32.902Z,12.93
2023-03-05T20:43:59.652Z,14.35
2023-03-05T20:46:29.016Z,12.00
2023-03-05T20:48:59.099Z,13.52
2023-03-05T20:51:32.015Z,11.80
2023-03-05T20:54:02.632Z,12.02
2023-03-05T20:56:32.349Z,10.85
2023-03-05T20:59:05.052Z,11.25
2023-03-05T21:01:33.887Z,10.43
2023-03-05T21:04:01.448Z,10.40
2023-03-05T21:06:30.400Z,11.50
2023-03-05T21:08:57.333Z,10.00
2023-03-05T21:11:24.047Z,10.13
2023-03-05T21:13:50.704Z,9.25
2023-03-05T21:16:23.120Z,8.15
2023-03-05T21:18:51.214Z,8.07
2023-03-05T21:21:18.412Z,10.05
2023-03-05T21:23:45.348Z,9.43
2023-03-05T21:26:13.399Z,11.10
2023-03-05T21:28:40.932Z,11.07
2023-03-05T21:31:10.885Z,11.88
2023-03-05T21:33:37.799Z,13.00
2023-03-05T21:36:05.157Z,13.63
2023-03-05T21:38:33.914Z,12.68
2023-03-05T21:41:01.445Z,12.35
2023-03-05T21:43:31.101Z,11.90
2023-03-05T21:45:59.366Z,13.48
2023-03-05T21:48:25.978Z,11.98
2023-03-05T21:50:53.119Z,11.23
2023-03-05T21:53:19.908Z,11.90
2023-03-05T21:56:02.663Z,12.25
2023-03-05T21:58:31.585Z,11.05
2023-03-05T22:00:58.981Z,11.45
2023-03-05T22:03:27.189Z,11.85
2023-03-05T22:05:55.245Z,11.55
2023-03-05T22:08:22.860Z,11.73
2023-03-05T22:10:49.549Z,12.25
2023-03-05T22:13:17.926Z,12.35
2023-03-05T22:15:49.967Z,12.40
2023-03-05T22:18:25.160Z,11.73
2023-03-05T22:20:52.950Z,12.43
2023-03-05T22:23:22.337Z,12.57
2023-03-05T22:26:15.654Z,12.90
2023-03-05T22:28:42.622Z,13.05
2023-03-05T22:31:10.046Z,13.30
2023-03-05T22:33:37.054Z,11.65
2023-03-05T22:36:11.859Z,13.68
2023-03-05T22:38:39.092Z,14.55
2023-03-05T22:41:14.017Z,11.23
2023-03-05T22:43:41.341Z,10.65
2023-03-05T22:46:13.444Z,11.80
2023-03-05T22:48:40.881Z,10.25
2023-03-05T22:51:09.002Z,10.52
2023-03-05T22:53:35.878Z,10.10
2023-03-05T22:56:11.614Z,10.00
2023-03-05T22:58:38.853Z,10.10
2023-03-05T23:01:22.578Z,8.02
2023-03-05T23:03:54.796Z,8.98
2023-03-05T23:06:21.799Z,9.27
2023-03-05T23:08:48.363Z,8.90
2023-03-05T23:11:15.141Z,9.43
2023-03-05T23:13:42.296Z,9.55
2023-03-05T23:16:09.752Z,9.52
2023-03-05T23:18:36.578Z,8.65
2023-03-05T23:21:03.420Z,9.95
2023-03-05T23:23:30.064Z,10.25
2023-03-05T23:25:56.720Z,10.80
2023-03-05T23:28:23.337Z,9.77
2023-03-05T23:30:50.139Z,10.27
2023-03-05T23:33:19.506Z,10.43
2023-03-05T23:35:52.259Z,10.40
2023-03-05T23:38:19.437Z,8.77
2023-03-05T23:40:48.928Z,9.77
2023-03-05T23:43:17.733Z,10.32
2023-03-05T23:45:48.073Z,9.77
2023-03-05T23:48:18.180Z,9.60
2023-03-05T23:50:47.858Z,9.63
2023-03-05T23:53:21.558Z,10.02
2023-03-05T23:55:49.138Z,10.07
2023-03-05T23:58:16.279Z,10.70
